createdAt,value
2019-03-08T05:03:26.542Z,99022.71
2019-03-08T05:07:03.073Z,99024.421
2019-03-08T05:10:31.043Z,99038.093
2019-03-08T05:13:58.881Z,99014.812
2019-03-08T05:17:26.742Z,99034.265
2019-03-08T05:20:54.654Z,99021.765
2019-03-08T05:24:22.498Z,99017.914
2019-03-08T05:27:50.362Z,99019.789
2019-03-08T05:31:18.345Z,99013.078
2019-03-08T05:34:46.180Z,99019.89
2019-03-08T05:38:14.041Z,99037.625
2019-03-08T05:41:41.911Z,99043.21
2019-03-08T05:45:09.762Z,99036.312
2019-03-08T05:48:37.631Z,99041.281
2019-03-08T05:52:05.628Z,99035.867
2019-03-08T05:55:33.458Z,99048
2019-03-08T05:59:01.318Z,99045.89
2019-03-08T06:02:29.178Z,99057.312
2019-03-08T06:05:57.028Z,99060.078
2019-03-08T06:09:24.983Z,99063
2019-03-08T06:12:52.846Z,99079.296
2019-03-08T06:16:20.678Z,99077.046
2019-03-08T06:19:48.534Z,99080.64
2019-03-08T06:23:16.387Z,99083.601
2019-03-08T06:26:44.229Z,99086.757
2019-03-08T06:30:12.081Z,99090.765
2019-03-08T06:33:40.928Z,99091.218
2019-03-08T06:37:08.778Z,99093.453
2019-03-08T06:40:36.614Z,99094.562
2019-03-08T06:44:04.474Z,99112.117
2019-03-08T06:47:32.340Z,99120.656
2019-03-08T06:51:00.184Z,99112.562
2019-03-08T06:54:28.087Z,99114.953
2019-03-08T06:57:55.942Z,99121.093
2019-03-08T07:01:23.784Z,99127.937
2019-03-08T07:04:51.638Z,99122.75
2019-03-08T07:08:19.487Z,99133.734
2019-03-08T07:11:47.333Z,99126.515
2019-03-08T07:15:15.174Z,99134.187
2019-03-08T07:18:43.020Z,99144.5
2019-03-08T07:22:10.879Z,99156.046
2019-03-08T07:25:38.714Z,99164.476
2019-03-08T07:29:08.577Z,99153.148
2019-03-08T07:32:36.408Z,99164.554
2019-03-08T07:36:05.244Z,99167.968
2019-03-08T07:39:33.089Z,99175.109
2019-03-08T07:43:00.938Z,99175.234
2019-03-08T07:46:28.808Z,99202.937
2019-03-08T07:49:56.660Z,99177
2019-03-08T07:53:24.511Z,99182.82
2019-03-08T07:56:52.355Z,99189.625
2019-03-08T08:00:20.215Z,99188.546
2019-03-08T08:03:48.076Z,99200.695
2019-03-08T08:07:15.917Z,99217.71
2019-03-08T08:10:43.769Z,99220.117
2019-03-08T08:14:11.626Z,99237.312
2019-03-08T08:17:39.494Z,99257.531
2019-03-08T08:21:07.512Z,99249.343
2019-03-08T08:24:35.524Z,99262.171
2019-03-08T08:28:03.445Z,99269.203
2019-03-08T08:31:31.414Z,99262.75
2019-03-08T08:34:59.321Z,99286.562
2019-03-08T08:38:27.186Z,99361.921
2019-03-08T08:41:55.094Z,99360.578
2019-03-08T08:45:22.955Z,99371.57
2019-03-08T08:48:50.883Z,99370.539
2019-03-08T08:52:18.803Z,99365.062
2019-03-08T08:55:46.648Z,99402.382
2019-03-08T08:59:14.574Z,99406.718
2019-03-08T09:02:42.425Z,99426.359
2019-03-08T09:06:10.326Z,99454.093
2019-03-08T09:09:38.233Z,99444.64
2019-03-08T09:13:06.094Z,99472.14
2019-03-08T09:16:34.004Z,99479.835
2019-03-08T09:20:01.919Z,99502.171
2019-03-08T09:23:29.782Z,99512.054
2019-03-08T09:26:57.779Z,99519.359
2019-03-08T09:30:25.664Z,99535.687
2019-03-08T09:33:53.583Z,99564.968
2019-03-08T09:37:21.470Z,99547.484
2019-03-08T09:40:49.366Z,99591.062
2019-03-08T09:44:18.295Z,99613.421
2019-03-08T09:47:46.157Z,99597.406
2019-03-08T09:51:13.998Z,99603.57
2019-03-08T09:54:42.843Z,99616.546
2019-03-08T09:58:10.691Z,99661.265
2019-03-08T10:01:38.542Z,99651.796
2019-03-08T10:05:07.372Z,99687.328
2019-03-08T10:08:35.220Z,99700.859
2019-03-08T10:12:03.067Z,99715.093
2019-03-08T10:15:30.909Z,99727.14
2019-03-08T10:18:58.767Z,99740.515
2019-03-08T10:22:26.620Z,99748.507
2019-03-08T10:25:54.487Z,99776.89
2019-03-08T10:29:23.337Z,99756.968
2019-03-08T10:32:51.189Z,99765.906
2019-03-08T10:36:19.028Z,99776.531
2019-03-08T10:39:46.891Z,99787.156
2019-03-08T10:43:14.750Z,99807.468
2019-03-08T10:46:42.595Z,99816.406
2019-03-08T10:50:10.448Z,99835.765
2019-03-08T10:53:38.297Z,99837.125
2019-03-08T10:57:06.134Z,99863.781
2019-03-08T11:00:33.988Z,99890.406
2019-03-08T11:04:01.847Z,99881.031
2019-03-08T11:07:38.706Z,99898.421
2019-03-08T11:11:08.557Z,99910.179
2019-03-08T11:14:36.431Z,99942.75
2019-03-08T11:18:04.278Z,99976.343
2019-03-08T11:21:33.154Z,99952.375
2019-03-08T11:25:07.933Z,99959.148
2019-03-08T11:28:33.864Z,99964.578
2019-03-08T11:32:01.747Z,100026.5
2019-03-08T11:35:29.639Z,100034.17
2019-03-08T11:38:57.526Z,99997.203
2019-03-08T11:42:25.440Z,100060.98
2019-03-08T11:45:54.321Z,100035.5
2019-03-08T11:49:22.204Z,100044.88
2019-03-08T11:52:50.105Z,100057.28
2019-03-08T11:56:18.018Z,100093.34
2019-03-08T11:59:47.698Z,100095.22
2019-03-08T12:03:15.607Z,100093.78
2019-03-08T12:06:44.404Z,100101.1
2019-03-08T12:10:13.069Z,100101.56
2019-03-08T12:13:40.955Z,100134.39
2019-03-08T12:17:08.969Z,100140.71
2019-03-08T12:20:38.515Z,100143.98
2019-03-08T12:24:06.428Z,100152.13
2019-03-08T12:27:34.347Z,100167.26
2019-03-08T12:31:03.260Z,100176.97
2019-03-08T12:34:31.146Z,100171.93
2019-03-08T12:37:59.006Z,100197.1
2019-03-08T12:41:26.967Z,100229.32
2019-03-08T12:44:54.882Z,100241.82
2019-03-08T12:48:24.743Z,100213.15
2019-03-08T12:51:52.702Z,100239.5
2019-03-08T12:55:20.605Z,100272.14
2019-03-08T12:58:48.561Z,100257.46
2019-03-08T13:02:16.470Z,100289.42
2019-03-08T13:05:44.369Z,100274.14
2019-03-08T13:09:14.251Z,100289.4
2019-03-08T13:12:42.122Z,100297.45
2019-03-08T13:16:09.999Z,100322.25
2019-03-08T13:19:37.869Z,100313.39
2019-03-08T13:23:05.723Z,100357.67
2019-03-08T13:26:33.643Z,100321.48
2019-03-08T13:30:01.602Z,100333.17
2019-03-08T13:33:30.465Z,100324.1
2019-03-08T13:36:59.346Z,100368.88
2019-03-08T13:40:27.184Z,100382.82
2019-03-08T13:43:55.036Z,100359.57
2019-03-08T13:47:23.888Z,100364.03
2019-03-08T13:50:51.773Z,100369.21
2019-03-08T13:54:20.643Z,100388.23
2019-03-08T13:57:48.515Z,100425.56
2019-03-08T14:01:16.490Z,100406.7
2019-03-08T14:04:44.347Z,100414.62
2019-03-08T14:08:12.237Z,100431.46
2019-03-08T14:11:40.111Z,100424.67
2019-03-08T14:15:08.994Z,100437.81
2019-03-08T14:18:36.895Z,100449.03
2019-03-08T14:22:05.414Z,100473.37
2019-03-08T14:25:33.360Z,100478.76
2019-03-08T14:29:02.203Z,100465.63
2019-03-08T14:32:30.096Z,100473.71
2019-03-08T14:35:59.031Z,100506.18
2019-03-08T14:39:29.898Z,100502.2
2019-03-08T14:42:57.781Z,100505.06
2019-03-08T14:46:25.697Z,100498.95
2019-03-08T14:49:59.137Z,100495.56
2019-03-08T14:53:28.295Z,100484.54
2019-03-08T14:56:58.201Z,100525.08
2019-03-08T15:00:28.967Z,100517.12
2019-03-08T15:03:58.967Z,100551
2019-03-08T15:07:26.870Z,100534.71
2019-03-08T15:10:54.716Z,100536.28
2019-03-08T15:14:22.610Z,100535.57
2019-03-08T15:17:53.456Z,100557.24
2019-03-08T15:21:21.338Z,100549.49
2019-03-08T15:24:50.471Z,100552.06
2019-03-08T15:28:19.349Z,100578.74
2019-03-08T15:31:47.236Z,100618.51
2019-03-08T15:35:15.155Z,100596.35
2019-03-08T15:38:43.035Z,100585.83
2019-03-08T15:42:10.924Z,100594.53
2019-03-08T15:45:44.354Z,100619.05
2019-03-08T15:49:11.615Z,100626.79
2019-03-08T15:52:39.482Z,100610.81
2019-03-08T15:56:07.327Z,100612.3
2019-03-08T15:59:35.241Z,100629
2019-03-08T16:03:04.116Z,100627.76
2019-03-08T16:06:31.963Z,100628.71
2019-03-08T16:10:00.857Z,100641.28
2019-03-08T16:13:29.770Z,100667.1
2019-03-08T16:16:57.626Z,100647.07
2019-03-08T16:20:25.559Z,100662
2019-03-08T16:24:00.510Z,100667.19
2019-03-08T16:27:28.380Z,100671.03
2019-03-08T16:30:56.216Z,100697.58
2019-03-08T16:34:24.097Z,100713.39
2019-03-08T16:37:51.959Z,100706.42
2019-03-08T16:41:19.806Z,100720.96
2019-03-08T16:44:47.682Z,100714.68
2019-03-08T16:48:15.552Z,100729.75
2019-03-08T16:51:43.444Z,100732.8
2019-03-08T16:55:11.421Z,100760.61
2019-03-08T16:58:39.291Z,100758.07
2019-03-08T17:02:07.240Z,100735.96
2019-03-08T17:05:35.114Z,100750.31
2019-03-08T17:09:02.996Z,100744.54
2019-03-08T17:12:30.844Z,100749.12
2019-03-08T17:15:59.760Z,100754.95
2019-03-08T17:19:27.639Z,100769.29
2019-03-08T17:22:55.473Z,100763.78
2019-03-08T17:26:24.335Z,100778.6
2019-03-08T17:29:52.191Z,100788.67
2019-03-08T17:33:20.032Z,100800.07
2019-03-08T17:36:47.899Z,100799.96
2019-03-08T17:40:15.779Z,100799.59
2019-03-08T17:43:44.613Z,100815.82
2019-03-08T17:47:12.494Z,100813.24
2019-03-08T17:50:40.360Z,100824.25
2019-03-08T17:54:08.229Z,100819.49
2019-03-08T17:57:36.096Z,100828.92
2019-03-08T18:01:03.969Z,100841.03
2019-03-08T18:04:31.818Z,100853.23
2019-03-08T18:07:59.682Z,100866.58
2019-03-08T18:11:28.553Z,100848.7
2019-03-08T18:15:05.572Z,100856.96
2019-03-08T18:18:33.411Z,100857.43
2019-03-08T18:22:04.663Z,100869.28
2019-03-08T18:25:32.522Z,100886.81
2019-03-08T18:29:00.392Z,100874
2019-03-08T18:32:28.260Z,100869.01
2019-03-08T18:35:57.052Z,100890.53
2019-03-08T18:39:24.918Z,100871.75
2019-03-08T18:42:52.800Z,100877.65
2019-03-08T18:46:20.791Z,100891.45
2019-03-08T18:49:49.288Z,100885.3
2019-03-08T18:53:17.146Z,100898.68
2019-03-08T18:56:44.987Z,100896.59
2019-03-08T19:00:12.897Z,100910.01
2019-03-08T19:03:46.561Z,100906.75
2019-03-08T19:07:14.495Z,100913.6
2019-03-08T19:10:42.747Z,100911.89
2019-03-08T19:14:10.650Z,100909.75
2019-03-08T19:17:38.536Z,100920.9
2019-03-08T19:21:06.421Z,100927.6
2019-03-08T19:24:34.366Z,100932.82
2019-03-08T19:28:02.233Z,100933.46
2019-03-08T19:31:30.121Z,100937.51
2019-03-08T19:34:58.003Z,100933.53
2019-03-08T19:38:25.863Z,100934.78
2019-03-08T19:41:53.858Z,100933.46
2019-03-08T19:45:22.730Z,100939.73
2019-03-08T19:48:50.649Z,100930.85
2019-03-08T19:52:21.897Z,100933.23
2019-03-08T19:55:49.807Z,100934.41
2019-03-08T19:59:17.798Z,100950.6
2019-03-08T20:02:45.883Z,100950.28
2019-03-08T20:06:19.239Z,100953.78
2019-03-08T20:09:47.841Z,100942.68
2019-03-08T20:13:18.277Z,100941.24
2019-03-08T20:16:50.706Z,100940.92
2019-03-08T20:20:22.410Z,100947.39
2019-03-08T20:23:50.281Z,100928.78
2019-03-08T20:27:18.198Z,100922.78
2019-03-08T20:30:46.109Z,100921.25
2019-03-08T20:34:15.000Z,100915.7
2019-03-08T20:37:42.866Z,100919.98
2019-03-08T20:41:10.747Z,100911.67
2019-03-08T20:44:38.716Z,100920.45
2019-03-08T20:48:06.670Z,100917.31
2019-03-08T20:51:34.563Z,100919.03
2019-03-08T20:55:02.565Z,100928.09
2019-03-08T20:58:31.419Z,100928.64
2019-03-08T21:01:59.311Z,100936.6
2019-03-08T21:05:27.244Z,100930.25
2019-03-08T21:08:55.126Z,100932.7
2019-03-08T21:12:23.058Z,100922.53
2019-03-08T21:15:51.002Z,100916.98
2019-03-08T21:19:18.822Z,100916.72
2019-03-08T21:22:46.858Z,100914.25
2019-03-08T21:26:14.839Z,100919.58
2019-03-08T21:29:42.704Z,100911.1
2019-03-08T21:33:10.624Z,100910.57
2019-03-08T21:36:38.512Z,100906.62
2019-03-08T21:40:06.381Z,100908.13
2019-03-08T21:43:34.257Z,100894.75
2019-03-08T21:47:02.116Z,100899.75
2019-03-08T21:50:29.962Z,100897.06
2019-03-08T21:53:58.824Z,100891.21
2019-03-08T21:57:27.755Z,100889
2019-03-08T22:00:55.700Z,100893.25
2019-03-08T22:04:24.225Z,100892.82
2019-03-08T22:07:53.107Z,100891.6
2019-03-08T22:11:20.991Z,100892.46
2019-03-08T22:14:48.872Z,100890
2019-03-08T22:18:17.731Z,100882.97
2019-03-08T22:21:45.594Z,100885.28
2019-03-08T22:25:13.467Z,100880.53
2019-03-08T22:28:41.351Z,100884.6
2019-03-08T22:32:16.751Z,100874.3
2019-03-08T22:35:44.599Z,100877.62
2019-03-08T22:39:12.456Z,100873.19
2019-03-08T22:42:41.377Z,100870.65
2019-03-08T22:46:09.228Z,100852.11
2019-03-08T22:49:37.076Z,100852.95
2019-03-08T22:53:04.920Z,100843.54
2019-03-08T22:56:32.786Z,100846.14
2019-03-08T23:00:00.647Z,100838.06
